Marshall Army Air Field
KFRI : now visible

Airfield :











YOU CAN JOIN US ON...

 
LOGIN :

Register | Disclaimer

   EN    FR    IT 

 









Legend :    VFR   Marginal VFR   IFR   Intensive IFR   Very Intensive IFR
Visi :
Ceiling :
>= 8 km
>= 3000ft
5 to 8 km
1000 to 3000 ft
1500m to 5 km
500 to 1000 ft
800 to 1500m
200 to 500 ft
< 800m
< 200 ft
Symbols :   Thunderstorms  Fog  Heavy snow  Heavy precipitations  Wind > 20 kt






- Airport Elevation : 1065 ft


KFRI - Marshall Army Air Field

CURRENT METAR :
  • 281156Z AUTO 00000KT 10SM CLR M01/M04 A3007 RMK AO2 SLP191 T10151042 10021 21027 57012

EXPIRED METARs :
  • 281056Z AUTO 00000KT 10SM CLR M01/M04 A3009 RMK AO2 SLP197 T10101039

TAF TAF KFRI
Valid from the 28 at 05:00 until the 29 at 11:00 UTC


280500Z 2805/2911 VRB06KT 9999 FEW045 QNH2995INS
BECMG 2823/2824 01006KT 8000 -SHRA BKN070 QNH2995INS
BECMG 2909/2910 01012KT 9999 NSW BKN007 QNH2995INS TX08/2821Z TN00/2812Z
KZKC FIR / North America



MET'MAP, your aeronautical weather chart ! - Copyright ORBIFLY December 2007 - Disclaimer

ORBIFLY MET'MAP TEAM :

Programming & Development : Alexandra Zaïnal
Concept & original design : Baudouin d'Aumeries
Assistance for programming : Marc-Olivier Méhu
Technical & hardware support : Manuel Goepfert

Contact : metmap@orbifly.com




SOURCES & CREDITS :

   NOAA       Earth
Advisory